Time;durP1;ratioP1;P1;durP2;ratioP2;P2;SDS_P1;SDS_P2;PMS_P1;PMS_P2;Temp;Humidity;BMP_temperature;BMP_pressure;BME280_temperature;BME280_humidity;BME280_pressure;Samples;Min_cycle;Max_cycle;Signal;HPM_P1;HPM_P2
2023/01/06 00:01:07;;;;;;;3.08;2.08;;;;;;;7.92;100.00;99408.47;1661229;85;21039;-92
2023/01/06 00:03:57;;;;;;;4.12;2.12;;;;;;;7.95;100.00;99401.89;1642824;85;21043;-92
2023/01/06 00:06:43;;;;;;;3.60;2.00;;;;;;;7.91;100.00;99410.91;1661393;84;21067;-92
2023/01/06 00:09:27;;;;;;;3.42;2.15;;;;;;;7.88;100.00;99412.86;1623583;86;21051;-91
2023/01/06 00:12:12;;;;;;;2.67;2.30;;;;;;;7.85;100.00;99421.04;1661792;86;21039;-92
2023/01/06 00:14:57;;;;;;;4.08;2.25;;;;;;;7.83;100.00;99421.87;1643172;84;21555;-92
2023/01/06 00:17:42;;;;;;;4.58;2.62;;;;;;;7.85;100.00;99433.84;1630405;86;21098;-92
2023/01/06 00:20:28;;;;;;;4.55;2.55;;;;;;;7.90;100.00;99428.34;1613381;87;21449;-93
2023/01/06 00:23:13;;;;;;;3.45;2.40;;;;;;;7.92;100.00;99433.76;1603803;89;21113;-92
2023/01/06 00:25:57;;;;;;;3.72;2.42;;;;;;;7.91;100.00;99436.75;1640646;85;21079;-93
2023/01/06 00:28:42;;;;;;;3.35;2.27;;;;;;;7.82;100.00;99432.50;1603170;87;21098;-93
2023/01/06 00:31:27;;;;;;;2.70;1.77;;;;;;;7.77;100.00;99441.26;1630609;87;21022;-92
2023/01/06 00:34:12;;;;;;;4.03;2.08;;;;;;;7.74;100.00;99448.08;1630608;87;21790;-93
2023/01/06 00:36:58;;;;;;;2.55;1.80;;;;;;;7.71;100.00;99446.71;1630197;86;21053;-93
2023/01/06 00:39:44;;;;;;;3.27;1.98;;;;;;;7.68;100.00;99440.49;1630068;86;21030;-92
2023/01/06 00:42:30;;;;;;;4.53;2.15;;;;;;;7.68;100.00;99447.29;1630147;86;21034;-91
2023/01/06 00:45:15;;;;;;;2.95;2.00;;;;;;;7.74;100.00;99447.53;1629901;86;21026;-91
2023/01/06 00:48:00;;;;;;;3.50;2.15;;;;;;;7.72;100.00;99445.63;1619454;86;21029;-91
2023/01/06 00:50:44;;;;;;;3.30;2.05;;;;;;;7.70;100.00;99451.09;1630884;86;21434;-93
2023/01/06 00:53:29;;;;;;;2.33;1.80;;;;;;;7.73;100.00;99443.16;1631004;86;21032;-92
2023/01/06 00:56:13;;;;;;;3.52;1.80;;;;;;;7.74;100.00;99445.36;1611166;88;21037;-92
2023/01/06 00:58:58;;;;;;;4.10;1.85;;;;;;;7.69;100.00;99450.29;1630874;86;21013;-92
2023/01/06 01:01:44;;;;;;;3.70;2.25;;;;;;;7.64;100.00;99447.61;1611352;88;21071;-92
2023/01/06 01:04:29;;;;;;;4.00;1.80;;;;;;;7.60;100.00;99443.02;1630707;87;21094;-92
2023/01/06 01:07:14;;;;;;;4.22;2.10;;;;;;;7.64;100.00;99444.89;1630855;86;21034;-93
2023/01/06 01:10:00;;;;;;;3.60;1.82;;;;;;;7.59;100.00;99442.22;1630767;87;21423;-91
2023/01/06 01:12:45;;;;;;;4.80;2.40;;;;;;;7.51;100.00;99442.80;1631372;87;21031;-93
2023/01/06 01:15:30;;;;;;;4.60;2.25;;;;;;;7.39;100.00;99455.38;1652078;85;21071;-91
2023/01/06 01:18:15;;;;;;;3.42;2.25;;;;;;;7.42;100.00;99452.65;1657602;85;21063;-93
2023/01/06 01:21:00;;;;;;;2.62;1.72;;;;;;;7.46;100.00;99452.36;1657601;85;21486;-93
2023/01/06 01:23:45;;;;;;;2.80;2.20;;;;;;;7.43;100.00;99455.65;1644862;86;21047;-92
2023/01/06 01:26:32;;;;;;;3.87;2.27;;;;;;;7.40;100.00;99456.22;1658990;84;21005;-92
2023/01/06 01:29:17;;;;;;;2.25;1.72;;;;;;;7.33;100.00;99453.26;1662158;84;21081;-92
2023/01/06 01:32:02;;;;;;;5.67;2.50;;;;;;;7.35;100.00;99454.34;1588490;88;21008;-93
2023/01/06 01:34:47;;;;;;;3.37;2.37;;;;;;;7.36;100.00;99459.23;1636771;86;21050;-92
2023/01/06 01:37:32;;;;;;;4.25;2.08;;;;;;;7.33;100.00;99455.98;1608073;87;21021;-92
2023/01/06 01:40:17;;;;;;;3.95;2.15;;;;;;;7.42;100.00;99454.84;1638646;85;21086;-92
2023/01/06 01:43:01;;;;;;;2.40;1.85;;;;;;;7.31;100.00;99450.00;1638167;86;21030;-93
2023/01/06 01:45:48;;;;;;;3.35;2.20;;;;;;;7.32;100.00;99453.56;1643498;85;21007;-93
2023/01/06 01:48:33;;;;;;;3.33;1.85;;;;;;;7.29;100.00;99459.53;1661509;85;21098;-94
2023/01/06 01:51:21;;;;;;;3.65;2.15;;;;;;;7.30;100.00;99459.27;1661278;84;21042;-92
2023/01/06 01:54:11;;;;;;;1.52;1.07;;;;;;;7.27;100.00;99463.08;1661353;85;21021;-91
2023/01/06 01:56:59;;;;;;;2.20;1.37;;;;;;;7.22;100.00;99462.59;1661210;86;21075;-93
2023/01/06 01:59:44;;;;;;;2.05;1.47;;;;;;;7.16;100.00;99468.32;1661338;85;21039;-93
2023/01/06 02:02:30;;;;;;;2.42;1.85;;;;;;;7.22;100.00;99463.95;1661104;85;21405;-93
2023/01/06 02:05:17;;;;;;;2.52;1.67;;;;;;;7.22;100.00;99471.27;1661236;84;21083;-92
2023/01/06 02:08:08;;;;;;;2.67;1.85;;;;;;;7.15;100.00;99472.95;1661613;86;21492;-94
2023/01/06 02:10:53;;;;;;;2.08;1.47;;;;;;;7.16;100.00;99480.00;1661980;83;21295;-93
2023/01/06 02:13:40;;;;;;;3.10;1.80;;;;;;;7.08;100.00;99482.75;1661395;86;21102;-92
2023/01/06 02:17:00;;;;;;;3.40;1.70;;;;;;;7.01;100.00;99489.59;1661585;85;21095;-94
2023/01/06 02:20:25;;;;;;;2.20;1.80;;;;;;;7.03;100.00;99483.34;1661099;84;21035;-93
2023/01/06 02:23:23;;;;;;;3.22;1.60;;;;;;;7.00;100.00;99491.50;1648422;85;21023;-93
2023/01/06 02:26:36;;;;;;;2.10;1.32;;;;;;;7.01;100.00;99489.03;1637195;86;21055;-91
2023/01/06 02:29:44;;;;;;;2.80;1.60;;;;;;;7.01;100.00;99486.32;1661302;85;21516;-92
2023/01/06 02:32:37;;;;;;;3.33;1.67;;;;;;;7.02;100.00;99500.70;1661426;85;21063;-91
2023/01/06 02:35:42;;;;;;;2.50;1.30;;;;;;;6.97;100.00;99490.67;1644731;85;21419;-93
2023/01/06 02:39:14;;;;;;;2.52;1.47;;;;;;;7.00;100.00;99504.27;1651364;85;21030;-92
2023/01/06 02:42:28;;;;;;;3.27;1.50;;;;;;;6.96;100.00;99507.27;1640887;86;21110;-92
2023/01/06 02:45:23;;;;;;;1.82;1.32;;;;;;;6.82;100.00;99505.13;1578216;89;21056;-92
2023/01/06 02:48:34;;;;;;;2.52;1.12;;;;;;;6.81;100.00;99510.86;1603345;89;21070;-93
2023/01/06 02:51:31;;;;;;;1.40;1.20;;;;;;;6.76;100.00;99506.80;1660980;84;21096;-94
2023/01/06 02:54:44;;;;;;;0.98;0.90;;;;;;;6.84;100.00;99505.67;1589026;87;21074;-93
2023/01/06 02:57:38;;;;;;;2.27;1.37;;;;;;;6.84;100.00;99511.11;1614828;87;21106;-92
2023/01/06 03:00:33;;;;;;;2.52;1.17;;;;;;;6.84;100.00;99511.11;1638494;86;21045;-94
2023/01/06 03:03:21;;;;;;;1.82;1.20;;;;;;;6.77;100.00;99517.38;1638734;86;21085;-95
2023/01/06 03:06:08;;;;;;;2.12;1.50;;;;;;;6.76;100.00;99525.27;1638386;85;21021;-93
2023/01/06 03:08:54;;;;;;;1.90;1.12;;;;;;;6.74;100.00;99523.91;1614528;87;21065;-92
2023/01/06 03:11:41;;;;;;;1.87;1.10;;;;;;;6.80;100.00;99529.58;1638150;86;21522;-92
2023/01/06 03:14:31;;;;;;;2.75;1.52;;;;;;;6.90;100.00;99532.28;1638135;86;21082;-92
2023/01/06 03:17:15;;;;;;;2.70;1.05;;;;;;;6.86;100.00;99537.44;1612332;88;21475;-94
2023/01/06 03:20:00;;;;;;;1.37;1.00;;;;;;;6.87;100.00;99538.25;1630785;86;21057;-92
2023/01/06 03:22:46;;;;;;;2.22;1.82;;;;;;;6.85;100.00;99545.88;1631006;87;21024;-93
2023/01/06 03:25:33;;;;;;;3.60;1.10;;;;;;;6.78;100.00;99547.52;1630733;88;21073;-94
2023/01/06 03:28:18;;;;;;;1.60;0.98;;;;;;;6.83;100.00;99550.22;1631056;87;21549;-93
2023/01/06 03:31:29;;;;;;;0.98;0.93;;;;;;;6.78;100.00;99548.08;1630800;86;21404;-93
2023/01/06 03:34:40;;;;;;;1.00;0.90;;;;;;;6.75;100.00;99547.25;1632057;84;21000;-91
2023/01/06 03:37:52;;;;;;;1.25;0.90;;;;;;;6.80;100.00;99549.42;1630831;87;21493;-92
2023/01/06 03:40:45;;;;;;;2.58;1.30;;;;;;;6.82;100.00;99560.80;1603056;88;21525;-92
2023/01/06 03:43:39;;;;;;;3.05;1.45;;;;;;;6.73;100.00;99563.03;1636330;87;21049;-92
2023/01/06 03:46:40;;;;;;;1.80;1.15;;;;;;;6.72;100.00;99570.34;1636053;86;21037;-93
2023/01/06 03:49:34;;;;;;;2.02;1.30;;;;;;;6.75;100.00;99569.81;1649019;84;21075;-92
2023/01/06 03:52:29;;;;;;;1.70;1.30;;;;;;;6.71;100.00;99576.87;1611628;88;21030;-94
2023/01/06 03:55:17;;;;;;;1.12;1.00;;;;;;;6.75;100.00;99587.45;1631264;86;21186;-93
2023/01/06 03:58:01;;;;;;;2.65;1.47;;;;;;;6.79;100.00;99584.99;1585844;89;21253;-92
2023/01/06 04:00:47;;;;;;;2.77;1.22;;;;;;;6.77;100.00;99598.83;1624743;86;21096;-93
2023/01/06 04:03:33;;;;;;;1.67;1.37;;;;;;;6.75;100.00;99601.55;1611830;88;21430;-94
2023/01/06 04:06:18;;;;;;;2.10;1.17;;;;;;;6.69;100.00;99611.61;1630833;86;21065;-94
2023/01/06 04:09:04;;;;;;;1.40;1.10;;;;;;;6.64;100.00;99617.05;1630849;87;21032;-92
2023/01/06 04:14:55;;;;;;;1.95;1.22;;;;;;;6.64;100.00;99648.27;1630631;86;21615;-93
2023/01/06 04:17:40;;;;;;;2.08;1.07;;;;;;;6.58;100.00;99644.76;1632851;87;21585;-92
2023/01/06 04:20:28;;;;;;;1.52;1.10;;;;;;;6.43;100.00;99655.08;1632845;87;20998;-93
2023/01/06 04:23:15;;;;;;;2.95;1.22;;;;;;;6.35;100.00;99658.31;1632261;86;21074;-92
2023/01/06 04:26:01;;;;;;;1.12;1.02;;;;;;;6.24;100.00;99666.19;1629554;86;21085;-92
2023/01/06 04:28:51;;;;;;;1.87;1.27;;;;;;;6.10;100.00;99669.14;1630138;88;21054;-93
2023/01/06 04:31:36;;;;;;;2.45;1.45;;;;;;;5.97;100.00;99684.04;1629600;86;21017;-93
2023/01/06 04:34:21;;;;;;;1.25;1.15;;;;;;;5.90;100.00;99690.22;1632423;86;21027;-93
2023/01/06 04:37:06;;;;;;;2.55;1.80;;;;;;;5.84;100.00;99696.73;1632973;87;21005;-94
2023/01/06 04:39:50;;;;;;;1.75;1.32;;;;;;;5.78;100.00;99708.07;1633121;86;20990;-93
2023/01/06 04:45:38;;;;;;;;;;;;;;;5.66;100.00;99725.91;1632348;86;21075;-94
2023/01/06 04:48:23;;;;;;;0.88;0.88;;;;;;;5.63;100.00;99735.94;1629629;88;20168;-92
2023/01/06 04:51:09;;;;;;;2.15;1.15;;;;;;;5.54;100.00;99739.70;1629874;86;21133;-93
2023/01/06 04:53:53;;;;;;;1.02;0.93;;;;;;;5.38;100.00;99750.98;1632201;87;21022;-93
2023/01/06 04:56:38;;;;;;;2.87;1.50;;;;;;;5.29;100.00;99760.70;1633001;87;21086;-93
2023/01/06 04:59:24;;;;;;;1.70;1.00;;;;;;;5.20;100.00;99766.86;1632165;86;21037;-93
2023/01/06 05:02:09;;;;;;;0.90;0.80;;;;;;;5.12;100.00;99770.88;1629703;88;21062;-92
2023/01/06 05:04:54;;;;;;;1.72;1.37;;;;;;;4.99;100.00;99788.35;1629289;86;21180;-92
2023/01/06 05:07:40;;;;;;;0.62;0.62;;;;;;;4.93;100.00;99799.69;1630171;87;21107;-93
2023/01/06 05:10:25;;;;;;;1.37;1.20;;;;;;;4.87;100.00;99814.78;1629964;86;21085;-93
2023/01/06 05:13:10;;;;;;;1.62;1.35;;;;;;;4.77;100.00;99820.10;1629928;86;21101;-92
2023/01/06 05:15:55;;;;;;;1.32;1.10;;;;;;;4.71;100.00;99833.59;1633946;86;21025;-93
2023/01/06 05:18:40;;;;;;;2.05;1.40;;;;;;;4.68;100.00;99838.17;1639363;86;21466;-94
2023/01/06 05:21:26;;;;;;;2.05;1.57;;;;;;;4.59;100.00;99849.70;1639622;86;21052;-92
2023/01/06 05:24:12;;;;;;;1.62;1.40;;;;;;;4.49;100.00;99856.63;1640607;87;21184;-92
2023/01/06 05:26:56;;;;;;;3.17;1.72;;;;;;;4.56;100.00;99859.14;1613739;86;21030;-93
2023/01/06 05:29:41;;;;;;;2.85;2.25;;;;;;;4.58;100.00;99867.83;1640432;87;21042;-93
2023/01/06 05:32:26;;;;;;;2.17;1.80;;;;;;;4.47;100.00;99879.59;1640410;87;21758;-93
2023/01/06 05:35:11;;;;;;;3.25;2.00;;;;;;;4.38;100.00;99885.19;1613922;87;21129;-93
2023/01/06 05:37:56;;;;;;;3.02;1.90;;;;;;;4.29;100.00;99896.97;1639970;86;21034;-92
2023/01/06 05:40:40;;;;;;;3.67;2.30;;;;;;;4.22;100.00;99905.80;1639355;86;21055;-93
2023/01/06 05:43:25;;;;;;;6.45;2.12;;;;;;;4.14;100.00;99913.82;1639496;87;21036;-93
2023/01/06 05:46:10;;;;;;;4.42;2.55;;;;;;;4.06;100.00;99925.08;1639326;86;21022;-92
2023/01/06 05:48:56;;;;;;;2.72;2.10;;;;;;;4.01;100.00;99934.47;1640163;87;21048;-93
2023/01/06 05:51:40;;;;;;;4.72;2.70;;;;;;;3.91;100.00;99936.99;1612357;87;21038;-93
2023/01/06 05:54:25;;;;;;;8.48;3.37;;;;;;;3.83;100.00;99948.54;1612772;88;21039;-94
2023/01/06 05:57:10;;;;;;;6.80;3.75;;;;;;;3.85;100.00;99953.67;1632102;86;21075;-92
2023/01/06 05:59:54;;;;;;;4.40;2.70;;;;;;;3.83;100.00;99955.30;1589398;87;21152;-93
2023/01/06 06:02:41;;;;;;;8.25;3.72;;;;;;;3.84;100.00;99962.33;1640542;87;21105;-92
2023/01/06 06:05:26;;;;;;;12.85;4.72;;;;;;;3.81;100.00;99977.69;1633712;85;21020;-93
2023/01/06 06:08:11;;;;;;;5.67;3.37;;;;;;;3.85;100.00;99990.17;1664367;85;21009;-93
2023/01/06 06:11:04;;;;;;;4.65;2.85;;;;;;;3.78;100.00;99984.92;1681395;84;21079;-92
2023/01/06 06:13:50;;;;;;;8.30;3.70;;;;;;;3.70;100.00;99994.80;1644022;85;21040;-93
2023/01/06 06:16:35;;;;;;;8.78;4.22;;;;;;;3.73;100.00;100005.11;1669158;84;21021;-93
2023/01/06 06:19:20;;;;;;;5.85;3.40;;;;;;;3.74;100.00;100010.81;1671964;84;21062;-93
2023/01/06 06:22:05;;;;;;;4.47;3.05;;;;;;;3.69;100.00;100014.78;1642303;86;21016;-93
2023/01/06 06:24:49;;;;;;;7.05;3.00;;;;;;;3.63;100.00;100026.55;1678523;83;21487;-93
2023/01/06 06:27:34;;;;;;;3.12;2.00;;;;;;;3.59;100.00;100034.88;1682036;84;21450;-92
2023/01/06 06:30:19;;;;;;;3.42;2.70;;;;;;;3.41;100.00;100047.53;1648198;84;21096;-93
2023/01/06 06:33:04;;;;;;;8.65;3.80;;;;;;;3.42;100.00;100057.27;1662775;86;21054;-92
2023/01/06 06:35:57;;;;;;;8.45;3.72;;;;;;;3.42;100.00;100064.02;1667860;84;21037;-93
2023/01/06 06:38:46;;;;;;;6.67;3.10;;;;;;;3.38;100.00;100069.61;1660911;84;21096;-93
2023/01/06 06:41:31;;;;;;;5.20;2.70;;;;;;;3.38;100.00;100076.36;1643680;86;21006;-93
2023/01/06 06:44:18;;;;;;;5.08;3.05;;;;;;;3.46;100.00;100088.66;1611113;87;21434;-94
2023/01/06 06:47:03;;;;;;;5.62;2.95;;;;;;;3.41;100.00;100093.95;1631088;86;21069;-93
2023/01/06 06:49:47;;;;;;;4.03;2.67;;;;;;;3.37;100.00;100097.69;1639859;86;21092;-94
2023/01/06 06:52:34;;;;;;;5.90;3.60;;;;;;;3.38;100.00;100102.55;1664655;84;21525;-93
2023/01/06 06:55:19;;;;;;;6.20;3.20;;;;;;;3.38;100.00;100112.81;1642407;86;21125;-93
2023/01/06 06:58:03;;;;;;;6.40;3.90;;;;;;;3.39;100.00;100122.58;1663022;86;21032;-92
2023/01/06 07:00:48;;;;;;;4.75;3.00;;;;;;;3.43;100.00;100130.47;1663284;84;21487;-93
2023/01/06 07:03:34;;;;;;;5.67;3.20;;;;;;;3.42;100.00;100119.93;1662780;84;21067;-92
2023/01/06 07:06:20;;;;;;;5.83;3.75;;;;;;;3.37;100.00;100130.63;1664023;84;21148;-92
2023/01/06 07:09:05;;;;;;;6.28;3.12;;;;;;;3.36;100.00;100138.42;1669635;84;21084;-92
2023/01/06 07:11:50;;;;;;;5.60;2.98;;;;;;;3.35;100.00;100145.72;1690708;83;21037;-92
2023/01/06 07:14:35;;;;;;;6.50;3.60;;;;;;;3.38;100.00;100146.58;1659097;84;21017;-93
2023/01/06 07:17:27;;;;;;;5.78;2.87;;;;;;;3.39;100.00;100154.99;1616793;86;21525;-93
2023/01/06 07:20:16;;;;;;;5.50;3.25;;;;;;;3.37;100.00;100165.21;1598070;87;21070;-92
2023/01/06 07:23:08;;;;;;;8.23;4.83;;;;;;;3.39;100.00;100177.95;1631924;87;21053;-92
2023/01/06 07:25:56;;;;;;;6.33;3.75;;;;;;;3.38;100.00;100195.73;1610903;87;21617;-93
2023/01/06 07:28:43;;;;;;;5.87;4.22;;;;;;;3.36;100.00;100197.34;1605369;89;21029;-93
2023/01/06 07:31:35;;;;;;;6.45;4.05;;;;;;;3.35;100.00;100205.67;1638953;86;21044;-94
2023/01/06 07:34:18;;;;;;;5.53;3.70;;;;;;;3.32;100.00;100210.20;1610124;88;21028;-92
2023/01/06 07:37:13;;;;;;;8.15;4.05;;;;;;;3.37;100.00;100213.83;1614229;88;21029;-93
2023/01/06 07:39:54;;;;;;;8.45;4.37;;;;;;;3.34;100.00;100223.77;1576366;89;21149;-94
2023/01/06 07:42:41;;;;;;;5.40;3.83;;;;;;;3.34;100.00;100238.62;1632174;87;21057;-92
2023/01/06 07:45:26;;;;;;;5.65;3.95;;;;;;;3.33;100.00;100242.36;1613870;87;21489;-93
2023/01/06 07:48:20;;;;;;;7.35;3.98;;;;;;;3.29;100.00;100256.06;1615917;86;21061;-93
2023/01/06 07:51:03;;;;;;;7.00;4.33;;;;;;;3.31;100.00;100262.03;1604914;87;21539;-93
2023/01/06 07:53:52;;;;;;;7.03;4.00;;;;;;;3.35;100.00;100274.02;1642641;86;21025;-92
2023/01/06 07:56:48;;;;;;;5.75;3.90;;;;;;;3.32;100.00;100272.33;1671866;85;20994;-92
2023/01/06 10:15:32;;;;;;;;;;;;;;;;;;;;;
2023/01/06 10:21:40;;;;;;;24.85;8.85;;;;;;;0.35;100.00;100557.77;1698980;82;21019;-91
2023/01/06 10:24:57;;;;;;;;;;;;;;;;;;;;;
2023/01/06 10:27:40;;;;;;;12.35;5.47;;;;;;;0.77;100.00;100560.16;1720062;81;21039;-93
2023/01/06 10:30:45;;;;;;;10.60;5.30;;;;;;;0.95;100.00;100568.87;1731798;81;21021;-92
2023/01/06 10:33:37;;;;;;;7.33;3.67;;;;;;;0.94;100.00;100563.17;1717710;82;21056;-91
2023/01/06 10:37:08;;;;;;;8.55;4.40;;;;;;;0.96;100.00;100575.38;1713965;82;21029;-92
2023/01/06 10:39:59;;;;;;;9.85;5.10;;;;;;;1.01;100.00;100570.17;1708544;83;21073;-91
2023/01/06 10:43:22;;;;;;;;;;;;;;;;;;;;;
2023/01/06 10:46:49;;;;;;;;;;;;;;;;;;;;;
2023/01/06 10:52:16;;;;;;;8.65;5.10;;;;;;;1.21;100.00;100591.65;1668763;82;72526;-86
2023/01/06 10:55:03;;;;;;;10.35;4.30;;;;;;;1.26;100.00;100590.48;1706769;82;21467;-86
2023/01/06 10:57:47;;;;;;;5.40;3.77;;;;;;;1.28;100.00;100591.59;1669226;85;21404;-86
2023/01/06 11:00:32;;;;;;;4.83;3.70;;;;;;;1.26;100.00;100606.64;1658641;85;21037;-86
2023/01/06 11:03:17;;;;;;;8.98;3.95;;;;;;;1.27;100.00;100607.45;1684731;84;21045;-86
2023/01/06 11:06:23;;;;;;;9.78;4.47;;;;;;;1.24;100.00;100604.67;1655410;84;21542;-86
2023/01/06 11:09:21;;;;;;;8.88;4.72;;;;;;;1.22;100.00;100614.83;1664896;84;21032;-86
2023/01/06 11:12:17;;;;;;;7.37;3.65;;;;;;;1.19;100.00;100615.26;1617259;83;21031;-85
2023/01/06 11:15:04;;;;;;;5.35;3.20;;;;;;;1.18;100.00;100621.66;1693852;83;21079;-86
2023/01/06 11:17:49;;;;;;;8.83;3.80;;;;;;;1.18;100.00;100636.47;1719169;83;21004;-85
2023/01/06 11:20:35;;;;;;;6.42;3.83;;;;;;;1.15;100.00;100650.36;1696183;83;21016;-85
2023/01/06 11:23:21;;;;;;;7.37;4.28;;;;;;;1.12;100.00;100653.48;1713684;83;21030;-86
2023/01/06 11:26:17;;;;;;;7.37;4.03;;;;;;;1.12;100.00;100657.52;1693470;83;20965;-86
2023/01/06 11:29:01;;;;;;;9.20;5.15;;;;;;;1.09;100.00;100664.68;1706309;83;21075;-86
2023/01/06 11:31:47;;;;;;;6.78;4.28;;;;;;;1.07;100.00;100670.79;1689830;83;21465;-85
2023/01/06 11:34:32;;;;;;;8.18;4.03;;;;;;;1.04;100.00;100676.60;1705347;83;21063;-85
2023/01/06 11:37:36;;;;;;;9.38;4.83;;;;;;;1.03;100.00;100685.70;1716789;81;20981;-86
2023/01/06 11:40:28;;;;;;;9.20;5.40;;;;;;;1.01;100.00;100689.93;1705380;82;21036;-85
2023/01/06 11:43:19;;;;;;;11.20;5.00;;;;;;;1.03;100.00;100710.73;1715728;83;21000;-86
2023/01/06 11:46:06;;;;;;;10.68;5.75;;;;;;;0.98;100.00;100709.72;1711115;83;20996;-86
2023/01/06 11:49:05;;;;;;;12.53;5.53;;;;;;;0.97;100.00;100720.19;1718073;83;21042;-86
2023/01/06 11:51:50;;;;;;;7.95;3.65;;;;;;;0.91;100.00;100718.32;1718001;82;21008;-91
2023/01/06 11:54:38;;;;;;;5.62;3.67;;;;;;;0.88;100.00;100713.36;1701666;83;21429;-89
2023/01/06 11:57:37;;;;;;;7.37;4.35;;;;;;;0.85;100.00;100718.12;1708336;83;21346;-90
2023/01/06 12:00:48;;;;;;;6.53;4.20;;;;;;;0.85;100.00;100732.92;1719562;83;21020;-89
2023/01/06 12:03:45;;;;;;;5.60;3.02;;;;;;;0.89;100.00;100733.84;1704037;83;21012;-89
2023/01/06 12:06:33;;;;;;;4.92;3.22;;;;;;;0.88;100.00;100742.44;1720623;81;21047;-91
2023/01/06 12:09:34;;;;;;;7.95;3.52;;;;;;;0.88;100.00;100749.69;1678839;83;21001;-87
2023/01/06 12:12:21;;;;;;;7.50;3.37;;;;;;;0.86;100.00;100743.98;1702303;82;21012;-89
2023/01/06 12:15:13;;;;;;;5.03;3.20;;;;;;;0.82;100.00;100755.39;1692828;83;21359;-89
2023/01/06 12:18:09;;;;;;;6.30;3.52;;;;;;;0.84;100.00;100762.70;1710442;82;21043;-90
2023/01/06 12:20:54;;;;;;;6.30;3.42;;;;;;;0.86;100.00;100781.64;1702713;83;21103;-89
2023/01/06 12:23:40;;;;;;;6.40;3.62;;;;;;;0.85;100.00;100777.84;1715484;82;21028;-92
2023/01/06 12:26:25;;;;;;;6.83;3.70;;;;;;;0.78;100.00;100787.24;1703520;81;21040;-90
2023/01/06 12:29:15;;;;;;;5.83;3.42;;;;;;;0.76;100.00;100791.17;1714444;83;21021;-89
2023/01/06 12:32:07;;;;;;;8.15;4.37;;;;;;;0.71;100.00;100796.34;1703825;83;21484;-89
2023/01/06 12:34:52;;;;;;;7.85;3.92;;;;;;;0.69;100.00;100804.61;1699923;83;21020;-90
2023/01/06 12:37:50;;;;;;;7.90;4.55;;;;;;;0.72;100.00;100802.87;1707781;83;21024;-89
2023/01/06 12:40:49;;;;;;;8.78;4.28;;;;;;;0.73;100.00;100815.28;1715949;83;21032;-89
2023/01/06 12:43:34;;;;;;;9.45;5.47;;;;;;;0.70;100.00;100820.26;1716696;83;21051;-89
2023/01/06 12:46:29;;;;;;;10.65;5.55;;;;;;;0.70;100.00;100819.73;1709263;83;21012;-89
2023/01/06 12:49:19;;;;;;;11.57;4.80;;;;;;;0.73;100.00;100828.73;1674472;83;21727;-90
2023/01/06 12:52:09;;;;;;;8.58;4.47;;;;;;;0.70;100.00;100828.33;1692119;84;21512;-89
2023/01/06 12:54:56;;;;;;;10.28;4.70;;;;;;;0.65;100.00;100826.25;1676946;82;21081;-90
2023/01/06 12:57:49;;;;;;;12.25;6.62;;;;;;;0.67;100.00;100838.98;1682499;84;21397;-89
2023/01/06 13:00:45;;;;;;;10.23;3.98;;;;;;;0.64;100.00;100846.09;1697479;84;21018;-89
2023/01/06 13:03:56;;;;;;;10.25;5.22;;;;;;;0.62;100.00;100850.87;1697949;83;21448;-89
2023/01/06 13:06:49;;;;;;;7.22;4.08;;;;;;;0.61;100.00;100850.53;1680441;84;21035;-91
2023/01/06 13:09:59;;;;;;;7.25;4.58;;;;;;;0.51;100.00;100860.86;1660778;84;21462;-90
2023/01/06 13:12:54;;;;;;;5.40;3.40;;;;;;;0.48;100.00;100856.72;1687462;84;21034;-90
2023/01/06 13:15:40;;;;;;;6.75;4.67;;;;;;;0.43;100.00;100874.80;1671162;84;21006;-88
2023/01/06 13:18:35;;;;;;;7.10;3.52;;;;;;;0.45;100.00;100875.13;1671466;84;21466;-90
2023/01/06 13:21:20;;;;;;;7.83;4.17;;;;;;;0.46;100.00;100876.78;1692968;84;21131;-89
2023/01/06 13:24:37;;;;;;;10.05;5.00;;;;;;;0.34;100.00;100876.00;1682396;84;21041;-91
2023/01/06 13:27:54;;;;;;;8.78;5.20;;;;;;;0.35;100.00;100886.27;1712976;82;21059;-91
2023/01/06 13:30:55;;;;;;;13.43;6.62;;;;;;;0.36;100.00;100891.42;1698677;82;21472;-90
2023/01/06 13:34:19;;;;;;;14.68;6.33;;;;;;;0.40;100.00;100896.72;1683323;82;21060;-90
2023/01/06 13:37:24;;;;;;;13.00;5.78;;;;;;;0.42;100.00;100894.67;1713245;83;21063;-88
2023/01/06 13:40:16;;;;;;;11.90;5.15;;;;;;;0.42;100.00;100916.17;1696298;83;21032;-91
2023/01/06 13:43:18;;;;;;;13.30;5.70;;;;;;;0.41;100.00;100909.13;1712906;83;21031;-89
2023/01/06 13:46:05;;;;;;;11.03;4.73;;;;;;;0.37;100.00;100915.95;1706512;83;21047;-92
2023/01/06 13:48:54;;;;;;;8.23;4.22;;;;;;;0.24;100.00;100925.28;1682508;83;21056;-90
2023/01/06 13:51:40;;;;;;;8.03;4.17;;;;;;;0.20;100.00;100949.58;1704939;83;21062;-88
2023/01/06 13:54:45;;;;;;;7.08;3.98;;;;;;;0.16;100.00;100946.97;1705436;82;20989;-89
2023/01/06 13:57:34;;;;;;;8.03;4.50;;;;;;;0.15;100.00;100964.12;1656950;85;21039;-89
2023/01/06 14:09:47;;;;;;;7.60;3.90;;;;;;;-0.96;100.00;100983.48;1824697;77;28928;-92
2023/01/06 14:12:34;;;;;;;49.05;15.68;;;;;;;-0.97;100.00;100996.55;1718996;80;21560;-92
2023/01/06 14:15:24;;;;;;;14.38;7.50;;;;;;;-0.93;100.00;101007.75;1739395;81;21250;-92
2023/01/06 14:18:16;;;;;;;9.73;4.00;;;;;;;-0.96;100.00;101006.28;1724142;81;21435;-92
2023/01/06 14:21:15;;;;;;;8.85;4.03;;;;;;;-0.92;100.00;101016.11;1723184;81;21056;-91
2023/01/06 14:24:05;;;;;;;7.47;3.58;;;;;;;-0.93;100.00;101026.53;1708585;82;21466;-89
2023/01/06 14:27:00;;;;;;;7.08;3.98;;;;;;;-0.90;100.00;101018.09;1719753;82;21439;-89
2023/01/06 14:29:45;;;;;;;9.10;3.62;;;;;;;-0.91;100.00;101022.64;1713910;81;21573;-89
2023/01/06 14:32:39;;;;;;;6.35;3.85;;;;;;;-0.94;100.00;101025.70;1719706;82;21002;-88
2023/01/06 14:35:43;;;;;;;5.17;3.15;;;;;;;-0.95;100.00;101033.41;1719673;81;21054;-90
2023/01/06 14:38:34;;;;;;;5.28;3.72;;;;;;;-0.97;100.00;101028.75;1701240;81;21514;-90
2023/01/06 14:41:36;;;;;;;6.90;3.72;;;;;;;-1.03;100.00;101032.20;1679899;83;20987;-89
2023/01/06 14:44:39;;;;;;;6.90;3.62;;;;;;;-1.05;100.00;101043.63;1708645;82;21052;-91
2023/01/06 14:47:37;;;;;;;6.67;3.47;;;;;;;-1.06;100.00;101035.27;1714400;82;20971;-91
2023/01/06 14:50:28;;;;;;;5.50;3.33;;;;;;;-1.06;100.00;101040.63;1699563;83;21007;-91
2023/01/06 14:53:40;;;;;;;6.65;3.30;;;;;;;-1.01;100.00;101037.39;1721987;80;21104;-90
2023/01/06 14:56:26;;;;;;;7.65;3.65;;;;;;;-1.07;100.00;101040.30;1702569;82;21063;-90
2023/01/06 14:59:12;;;;;;;9.60;4.12;;;;;;;-1.10;100.00;101048.20;1719850;80;21003;-90
2023/01/06 15:02:13;;;;;;;6.08;3.17;;;;;;;-1.11;100.00;101043.87;1717804;82;21043;-91
2023/01/06 15:04:58;;;;;;;7.75;3.30;;;;;;;-1.11;100.00;101048.41;1678198;83;21429;-89
2023/01/06 15:08:06;;;;;;;7.05;3.98;;;;;;;-1.12;100.00;101054.78;1724787;81;21015;-90
2023/01/06 15:10:50;;;;;;;9.48;3.77;;;;;;;-1.12;100.00;101056.12;1716074;82;21873;-90
2023/01/06 15:13:36;;;;;;;5.60;2.77;;;;;;;-1.15;100.00;101069.39;1676951;83;21009;-93
2023/01/06 15:16:34;;;;;;;5.28;3.15;;;;;;;-1.16;100.00;101065.06;1666551;84;21533;-93
2023/01/06 15:19:19;;;;;;;6.78;3.62;;;;;;;-1.15;100.00;101072.59;1705850;82;21045;-92
2023/01/06 15:22:07;;;;;;;7.65;3.70;;;;;;;-1.13;100.00;101082.63;1704006;82;21041;-93
2023/01/06 15:24:51;;;;;;;5.53;3.35;;;;;;;-1.14;100.00;101094.36;1720435;81;21838;-93
2023/01/06 15:27:45;;;;;;;5.28;3.47;;;;;;;-1.14;100.00;101095.70;1711727;80;20998;-93
2023/01/06 15:30:33;;;;;;;6.05;3.47;;;;;;;-1.15;100.00;101096.73;1715715;80;21072;-91
2023/01/06 15:33:16;;;;;;;9.70;4.20;;;;;;;-1.18;100.00;101111.86;1660153;84;21030;-91
2023/01/06 15:36:01;;;;;;;7.33;3.62;;;;;;;-1.22;100.00;101109.22;1715615;80;21482;-92
2023/01/06 15:38:46;;;;;;;7.15;3.52;;;;;;;-1.25;100.00;101111.77;1702815;82;21003;-92
2023/01/06 15:41:35;;;;;;;6.60;3.60;;;;;;;-1.27;100.00;101114.31;1718550;82;21012;-93
2023/01/06 15:44:34;;;;;;;6.75;3.77;;;;;;;-1.28;100.00;101122.05;1646070;83;21470;-92
2023/01/06 15:47:28;;;;;;;11.25;4.25;;;;;;;-1.31;100.00;101122.73;1709358;82;20983;-91
2023/01/06 15:50:22;;;;;;;8.90;4.83;;;;;;;-1.36;100.00;101130.50;1645446;84;21077;-93
2023/01/06 15:53:30;;;;;;;;;;;;;;;;;;;;;
2023/01/06 15:56:22;;;;;;;14.83;6.17;;;;;;;-1.44;100.00;101129.22;1696141;82;21452;-92
2023/01/06 15:59:14;;;;;;;10.93;5.75;;;;;;;-1.44;100.00;101141.80;1690565;84;21450;-92
2023/01/06 16:02:02;;;;;;;11.65;5.70;;;;;;;-1.43;100.00;101146.99;1725040;82;20952;-93